createdAt,value
2017-04-16T00:00:34.463Z,1007.61
2017-04-16T00:01:35.885Z,1007.62
2017-04-16T00:02:37.311Z,1007.66
2017-04-16T00:03:38.742Z,1007.65
2017-04-16T00:04:40.162Z,1007.70
2017-04-16T00:05:41.597Z,1007.69
2017-04-16T00:06:43.017Z,1007.71
2017-04-16T00:07:44.440Z,1007.67
2017-04-16T00:08:45.862Z,1007.73
2017-04-16T00:09:47.295Z,1007.77
2017-04-16T00:10:48.715Z,1007.73
2017-04-16T00:11:50.139Z,1007.74
2017-04-16T00:12:51.566Z,1007.74
2017-04-16T00:13:52.990Z,1007.68
2017-04-16T00:14:54.415Z,1007.70
2017-04-16T00:15:55.835Z,1007.76
2017-04-16T00:16:57.259Z,1007.74
2017-04-16T00:17:58.683Z,1007.68
2017-04-16T00:19:00.110Z,1007.68
2017-04-16T00:20:01.537Z,1007.68
2017-04-16T00:21:02.961Z,1007.65
2017-04-16T00:22:04.381Z,1007.69
2017-04-16T00:23:05.803Z,1007.70
2017-04-16T00:24:07.227Z,1007.70
2017-04-16T00:25:08.650Z,1007.66
2017-04-16T00:26:10.072Z,1007.68
2017-04-16T00:27:11.502Z,1007.75
2017-04-16T00:28:12.917Z,1007.74
2017-04-16T00:29:14.340Z,1007.74
2017-04-16T00:30:15.758Z,1007.73
2017-04-16T00:31:17.177Z,1007.73
2017-04-16T00:32:18.605Z,1007.70
2017-04-16T00:33:20.021Z,1007.71
2017-04-16T00:34:21.454Z,1007.66
2017-04-16T00:35:22.955Z,1007.68
2017-04-16T00:36:24.377Z,1007.67
2017-04-16T00:37:25.796Z,1007.67
2017-04-16T00:38:27.301Z,1007.68
2017-04-16T00:39:28.728Z,1007.66
2017-04-16T00:40:30.154Z,1007.65
2017-04-16T00:41:31.656Z,1007.70
2017-04-16T00:42:33.082Z,1007.62
2017-04-16T00:43:34.508Z,1007.63
2017-04-16T00:44:35.931Z,1007.66
2017-04-16T00:45:37.359Z,1007.67
2017-04-16T00:46:38.787Z,1007.62
2017-04-16T00:47:40.219Z,1007.64
2017-04-16T00:48:41.643Z,1007.69
2017-04-16T00:49:43.072Z,1007.68
2017-04-16T00:50:44.501Z,1007.69
2017-04-16T00:51:45.920Z,1007.66
2017-04-16T00:52:47.347Z,1007.69
2017-04-16T00:53:48.767Z,1007.70
2017-04-16T00:54:50.186Z,1007.66
2017-04-16T00:55:51.607Z,1007.67
2017-04-16T00:56:53.028Z,1007.68
2017-04-16T00:57:54.456Z,1007.60
2017-04-16T00:58:55.879Z,1007.64
2017-04-16T00:59:57.298Z,1007.67
2017-04-16T01:00:58.720Z,1007.70
2017-04-16T01:02:00.152Z,1007.70
2017-04-16T01:03:01.579Z,1007.68
2017-04-16T01:04:02.998Z,1007.72
2017-04-16T01:05:04.422Z,1007.74
2017-04-16T01:06:05.845Z,1007.72
2017-04-16T01:07:07.268Z,1007.73
2017-04-16T01:08:08.692Z,1007.74
2017-04-16T01:09:10.108Z,1007.74
2017-04-16T01:10:11.528Z,1007.82
2017-04-16T01:11:12.945Z,1007.77
2017-04-16T01:12:14.373Z,1007.72
2017-04-16T01:13:15.801Z,1007.72
2017-04-16T01:14:17.222Z,1007.71
2017-04-16T01:15:18.647Z,1007.73
2017-04-16T01:16:20.067Z,1007.69
2017-04-16T01:17:21.483Z,1007.70
2017-04-16T01:18:22.905Z,1007.69
2017-04-16T01:19:24.329Z,1007.71
2017-04-16T01:20:25.743Z,1007.71
2017-04-16T01:21:27.165Z,1007.69
2017-04-16T01:22:28.589Z,1007.74
2017-04-16T01:23:30.009Z,1007.66
2017-04-16T01:24:31.426Z,1007.69
2017-04-16T01:25:32.849Z,1007.69
2017-04-16T01:26:34.270Z,1007.67
2017-04-16T01:27:35.691Z,1007.66
2017-04-16T01:28:37.158Z,1007.65
2017-04-16T01:29:38.586Z,1007.64
2017-04-16T01:30:39.998Z,1007.64
2017-04-16T01:31:41.463Z,1007.61
2017-04-16T01:32:42.931Z,1007.64
2017-04-16T01:33:44.359Z,1007.61
2017-04-16T01:34:45.778Z,1007.61
2017-04-16T01:35:47.252Z,1007.59
2017-04-16T01:36:48.668Z,1007.58
2017-04-16T01:37:50.098Z,1007.59
2017-04-16T01:38:51.561Z,1007.58
2017-04-16T01:39:53.004Z,1007.60
2017-04-16T01:40:54.427Z,1007.51
2017-04-16T01:41:55.846Z,1007.55
2017-04-16T01:42:57.275Z,1007.59
2017-04-16T01:43:58.696Z,1007.61
2017-04-16T01:45:00.121Z,1007.61
2017-04-16T01:46:01.556Z,1007.57
2017-04-16T01:47:02.983Z,1007.55
2017-04-16T01:48:04.405Z,1007.57
2017-04-16T01:49:05.834Z,1007.58
2017-04-16T01:50:07.255Z,1007.57
2017-04-16T01:51:08.681Z,1007.54
2017-04-16T01:52:10.097Z,1007.57
2017-04-16T01:53:11.522Z,1007.55
2017-04-16T01:54:12.942Z,1007.55
2017-04-16T01:55:14.366Z,1007.52
2017-04-16T01:56:15.787Z,1007.55
2017-04-16T01:57:17.208Z,1007.54
2017-04-16T01:58:18.628Z,1007.54
2017-04-16T01:59:20.047Z,1007.52
2017-04-16T02:00:21.479Z,1007.48
2017-04-16T02:01:22.897Z,1007.51
2017-04-16T02:02:24.315Z,1007.51
2017-04-16T02:03:25.735Z,1007.51
2017-04-16T02:04:27.158Z,1007.51
2017-04-16T02:05:28.578Z,1007.52
2017-04-16T02:06:29.998Z,1007.50
2017-04-16T02:07:31.414Z,1007.51
2017-04-16T02:08:32.836Z,1007.49
2017-04-16T02:09:34.267Z,1007.58
2017-04-16T02:10:35.694Z,1007.54
2017-04-16T02:11:37.143Z,1007.54
2017-04-16T02:12:38.504Z,1007.55
2017-04-16T02:13:39.933Z,1007.55
2017-04-16T02:14:41.360Z,1007.56
2017-04-16T02:15:42.793Z,1007.59
2017-04-16T02:16:44.206Z,1007.56
2017-04-16T02:17:45.632Z,1007.54
2017-04-16T02:18:47.048Z,1007.52
2017-04-16T02:19:48.473Z,1007.57
2017-04-16T02:20:49.895Z,1007.59
2017-04-16T02:21:51.327Z,1007.57
2017-04-16T02:22:52.754Z,1007.57
2017-04-16T02:23:54.175Z,1007.54
2017-04-16T02:24:55.598Z,1007.59
2017-04-16T02:25:57.054Z,1007.56
2017-04-16T02:26:58.484Z,1007.55
2017-04-16T02:27:59.911Z,1007.58
2017-04-16T02:29:01.338Z,1007.58
2017-04-16T02:30:02.772Z,1007.60
2017-04-16T02:31:04.193Z,1007.60
2017-04-16T02:32:05.620Z,1007.64
2017-04-16T02:33:07.047Z,1007.61
2017-04-16T02:34:08.470Z,1007.62
2017-04-16T02:35:09.894Z,1007.61
2017-04-16T02:36:11.319Z,1007.64
2017-04-16T02:37:12.742Z,1007.61
2017-04-16T02:38:14.169Z,1007.62
2017-04-16T02:39:15.597Z,1007.61
2017-04-16T02:40:17.019Z,1007.57
2017-04-16T02:41:18.444Z,1007.61
2017-04-16T02:42:19.866Z,1007.60
2017-04-16T02:43:21.282Z,1007.60
2017-04-16T02:44:22.710Z,1007.60
2017-04-16T02:45:24.130Z,1007.55
2017-04-16T02:46:25.551Z,1007.56
2017-04-16T02:47:26.976Z,1007.58
2017-04-16T02:48:28.394Z,1007.50
2017-04-16T02:49:29.816Z,1007.53
2017-04-16T02:50:31.237Z,1007.55
2017-04-16T02:51:32.657Z,1007.54
2017-04-16T02:52:34.084Z,1007.53
2017-04-16T02:53:35.502Z,1007.55
2017-04-16T02:54:36.923Z,1007.54
2017-04-16T02:55:38.347Z,1007.55
2017-04-16T02:56:39.769Z,1007.58
2017-04-16T02:57:41.187Z,1007.57
2017-04-16T02:58:42.607Z,1007.61
2017-04-16T02:59:44.031Z,1007.62
2017-04-16T03:00:45.463Z,1007.63
2017-04-16T03:01:46.881Z,1007.60
2017-04-16T03:02:48.304Z,1007.63
2017-04-16T03:03:49.729Z,1007.62
2017-04-16T03:04:51.157Z,1007.64
2017-04-16T03:05:52.578Z,1007.62
2017-04-16T03:06:53.993Z,1007.62
2017-04-16T03:07:55.419Z,1007.59
2017-04-16T03:08:56.837Z,1007.63
2017-04-16T03:09:58.255Z,1007.60
2017-04-16T03:10:59.679Z,1007.61
2017-04-16T03:12:01.100Z,1007.60
2017-04-16T03:13:02.523Z,1007.62
2017-04-16T03:14:03.954Z,1007.62
2017-04-16T03:15:05.375Z,1007.62
2017-04-16T03:16:06.805Z,1007.64
2017-04-16T03:17:08.223Z,1007.63
2017-04-16T03:18:09.651Z,1007.65
2017-04-16T03:19:11.173Z,1007.63
2017-04-16T03:20:12.595Z,1007.61
2017-04-16T03:21:14.016Z,1007.66
2017-04-16T03:22:15.437Z,1007.60
2017-04-16T03:23:16.872Z,1007.60
2017-04-16T03:24:18.287Z,1007.63
2017-04-16T03:25:19.703Z,1007.64
2017-04-16T03:26:21.184Z,1007.63
2017-04-16T03:27:22.612Z,1007.64
2017-04-16T03:28:24.034Z,1007.68
2017-04-16T03:29:25.456Z,1007.65
2017-04-16T03:30:26.881Z,1007.67
2017-04-16T03:31:28.302Z,1007.67
2017-04-16T03:32:29.718Z,1007.67
2017-04-16T03:33:31.136Z,1007.71
2017-04-16T03:34:32.558Z,1007.70
2017-04-16T03:35:33.989Z,1007.71
2017-04-16T03:36:35.410Z,1007.72
2017-04-16T03:37:36.840Z,1007.67
2017-04-16T03:38:38.255Z,1007.66
2017-04-16T03:39:39.678Z,1007.67
2017-04-16T03:40:41.100Z,1007.70
2017-04-16T03:41:42.527Z,1007.75
2017-04-16T03:42:43.950Z,1007.68
2017-04-16T03:43:45.368Z,1007.74
2017-04-16T03:44:46.789Z,1007.76
2017-04-16T03:45:48.212Z,1007.74
2017-04-16T03:46:49.643Z,1007.74
2017-04-16T03:47:51.067Z,1007.79
2017-04-16T03:48:52.485Z,1007.78
2017-04-16T03:49:53.917Z,1007.81
2017-04-16T03:50:55.329Z,1007.78
2017-04-16T03:51:56.755Z,1007.78
2017-04-16T03:52:58.185Z,1007.80
2017-04-16T03:53:59.612Z,1007.79
2017-04-16T03:55:01.035Z,1007.80
2017-04-16T03:56:02.458Z,1007.84
2017-04-16T03:57:03.881Z,1007.83
2017-04-16T03:58:05.309Z,1007.82
2017-04-16T03:59:06.732Z,1007.85
2017-04-16T04:00:08.145Z,1007.84
2017-04-16T04:01:09.567Z,1007.85
2017-04-16T04:02:10.995Z,1007.85
2017-04-16T04:03:12.414Z,1007.78
2017-04-16T04:04:13.836Z,1007.81
2017-04-16T04:05:15.258Z,1007.75
2017-04-16T04:06:16.686Z,1007.79
2017-04-16T04:07:18.106Z,1007.80
2017-04-16T04:08:19.530Z,1007.83
2017-04-16T04:09:20.950Z,1007.80
2017-04-16T04:10:22.368Z,1007.80
2017-04-16T04:11:23.788Z,1007.77
2017-04-16T04:12:25.258Z,1007.81
2017-04-16T04:13:26.699Z,1007.82
2017-04-16T04:14:28.123Z,1007.81
2017-04-16T04:15:29.545Z,1007.79
2017-04-16T04:16:30.965Z,1007.80
2017-04-16T04:17:32.387Z,1007.86
2017-04-16T04:18:33.807Z,1007.85
2017-04-16T04:19:35.229Z,1007.84
2017-04-16T04:20:36.647Z,1007.87
2017-04-16T04:21:38.071Z,1007.88
2017-04-16T04:22:39.502Z,1007.88
2017-04-16T04:23:40.919Z,1007.90
2017-04-16T04:24:42.343Z,1007.89
2017-04-16T04:25:43.762Z,1007.91
2017-04-16T04:26:45.190Z,1007.87
2017-04-16T04:27:46.611Z,1007.89
2017-04-16T04:28:48.033Z,1007.89
2017-04-16T04:29:49.455Z,1007.90
2017-04-16T04:30:50.873Z,1007.96
2017-04-16T04:31:52.298Z,1007.92
2017-04-16T04:32:53.719Z,1007.95
2017-04-16T04:33:55.141Z,1007.96
2017-04-16T04:34:56.577Z,1008.03
2017-04-16T04:35:57.999Z,1008.03
2017-04-16T04:36:59.424Z,1008.00
2017-04-16T04:38:00.864Z,1008.06
2017-04-16T04:39:02.270Z,1008.07
2017-04-16T04:40:03.694Z,1008.08
2017-04-16T04:41:05.118Z,1008.11
2017-04-16T04:42:06.538Z,1008.12
2017-04-16T04:43:07.969Z,1008.16
2017-04-16T04:44:09.396Z,1008.13
2017-04-16T04:45:10.814Z,1008.15
2017-04-16T04:46:12.249Z,1008.15
2017-04-16T04:47:13.635Z,1008.12
2017-04-16T04:48:15.056Z,1008.15
2017-04-16T04:49:16.478Z,1008.14
2017-04-16T04:50:17.897Z,1008.17
2017-04-16T04:51:19.320Z,1008.17
2017-04-16T04:52:20.754Z,1008.18
2017-04-16T04:53:22.189Z,1008.18
2017-04-16T04:54:23.616Z,1008.24
2017-04-16T04:55:25.045Z,1008.19
2017-04-16T04:56:26.469Z,1008.22
2017-04-16T04:57:27.902Z,1008.21
2017-04-16T04:58:29.286Z,1008.23
2017-04-16T04:59:30.714Z,1008.28
2017-04-16T05:00:32.130Z,1008.19
2017-04-16T05:01:33.559Z,1008.23
2017-04-16T05:02:35.046Z,1008.20
2017-04-16T05:03:36.470Z,1008.24
2017-04-16T05:04:37.892Z,1008.28
2017-04-16T05:05:39.317Z,1008.28
2017-04-16T05:06:40.737Z,1008.23
2017-04-16T05:07:42.161Z,1008.23
2017-04-16T05:08:43.680Z,1008.24
2017-04-16T05:09:45.113Z,1008.19
2017-04-16T05:10:46.533Z,1008.23
2017-04-16T05:11:47.959Z,1008.17
2017-04-16T05:12:49.382Z,1008.21
2017-04-16T05:13:50.818Z,1008.21
2017-04-16T05:14:52.245Z,1008.24
2017-04-16T05:15:53.674Z,1008.22
2017-04-16T05:16:55.098Z,1008.20
2017-04-16T05:17:56.519Z,1008.27
2017-04-16T05:18:57.943Z,1008.20
2017-04-16T05:19:59.366Z,1008.18
2017-04-16T05:21:00.793Z,1008.22
2017-04-16T05:22:02.221Z,1008.23
2017-04-16T05:23:03.643Z,1008.24
2017-04-16T05:24:05.067Z,1008.27
2017-04-16T05:25:06.496Z,1008.28
2017-04-16T05:26:07.922Z,1008.25
2017-04-16T05:27:09.355Z,1008.32
2017-04-16T05:28:10.779Z,1008.29
2017-04-16T05:29:12.226Z,1008.25
2017-04-16T05:30:13.659Z,1008.24
2017-04-16T05:31:15.085Z,1008.27
2017-04-16T05:32:16.515Z,1008.30
2017-04-16T05:33:17.943Z,1008.26
2017-04-16T05:34:19.370Z,1008.29
2017-04-16T05:35:20.801Z,1008.29
2017-04-16T05:36:22.220Z,1008.27
2017-04-16T05:37:23.640Z,1008.28
2017-04-16T05:38:25.062Z,1008.31
2017-04-16T05:39:26.488Z,1008.31
2017-04-16T05:40:27.913Z,1008.29
2017-04-16T05:41:29.340Z,1008.29
2017-04-16T05:42:30.764Z,1008.36
2017-04-16T05:43:32.198Z,1008.33
2017-04-16T05:44:33.618Z,1008.37
2017-04-16T05:45:35.048Z,1008.38
2017-04-16T05:46:36.477Z,1008.36
2017-04-16T05:47:37.901Z,1008.39
2017-04-16T05:48:39.942Z,1008.37
2017-04-16T05:49:41.420Z,1008.40
2017-04-16T05:50:42.842Z,1008.41
2017-04-16T05:51:44.270Z,1008.44
2017-04-16T05:52:45.698Z,1008.44
2017-04-16T05:53:47.132Z,1008.44
2017-04-16T05:54:48.564Z,1008.42
2017-04-16T05:55:49.993Z,1008.47
2017-04-16T05:56:51.424Z,1008.44
2017-04-16T05:57:52.853Z,1008.44
2017-04-16T05:58:54.285Z,1008.49
2017-04-16T05:59:55.715Z,1008.48
2017-04-16T06:00:57.151Z,1008.54
2017-04-16T06:01:58.574Z,1008.55
2017-04-16T06:02:59.999Z,1008.50
2017-04-16T06:04:02.275Z,1008.56
2017-04-16T06:05:03.704Z,1008.58
2017-04-16T06:06:05.141Z,1008.61
2017-04-16T06:07:06.568Z,1008.61
2017-04-16T06:08:07.993Z,1008.62
2017-04-16T06:09:09.420Z,1008.64
2017-04-16T06:10:10.858Z,1008.68
2017-04-16T06:11:12.288Z,1008.66
2017-04-16T06:12:13.713Z,1008.68
2017-04-16T06:13:15.145Z,1008.69
2017-04-16T06:14:16.575Z,1008.63
2017-04-16T06:15:18.494Z,1008.64
2017-04-16T06:16:19.918Z,1008.67
2017-04-16T06:17:21.403Z,1008.70
2017-04-16T06:18:22.834Z,1008.66
2017-04-16T06:19:24.269Z,1008.69
2017-04-16T06:20:25.696Z,1008.63
2017-04-16T06:21:27.242Z,1008.68
2017-04-16T06:22:28.681Z,1008.68
2017-04-16T06:23:30.106Z,1008.73
2017-04-16T06:24:31.547Z,1008.76
2017-04-16T06:25:32.977Z,1008.71
2017-04-16T06:26:34.406Z,1008.69
2017-04-16T06:27:35.830Z,1008.72
2017-04-16T06:28:37.263Z,1008.70
2017-04-16T06:29:38.695Z,1008.72
2017-04-16T06:30:40.132Z,1008.72
2017-04-16T06:31:41.572Z,1008.73
2017-04-16T06:32:43.002Z,1008.73
2017-04-16T06:33:44.430Z,1008.74
2017-04-16T06:34:45.861Z,1008.74
2017-04-16T06:35:47.290Z,1008.73
2017-04-16T06:36:48.718Z,1008.75
2017-04-16T06:37:50.155Z,1008.72
2017-04-16T06:38:51.586Z,1008.76
2017-04-16T06:39:53.021Z,1008.74
2017-04-16T06:40:54.444Z,1008.74
2017-04-16T06:41:55.867Z,1008.80
2017-04-16T06:42:57.307Z,1008.83
2017-04-16T06:43:58.731Z,1008.78
2017-04-16T06:45:01.017Z,1008.81
2017-04-16T06:46:01.526Z,1008.87
2017-04-16T06:47:02.957Z,1008.86
2017-04-16T06:48:04.386Z,1008.80
2017-04-16T06:49:05.818Z,1008.82
2017-04-16T06:50:07.249Z,1008.84
2017-04-16T06:51:08.678Z,1008.85
2017-04-16T06:52:10.111Z,1008.82
2017-04-16T06:53:11.540Z,1008.83
2017-04-16T06:54:12.976Z,1008.86
2017-04-16T06:55:14.405Z,1008.87
2017-04-16T06:56:15.845Z,1008.85
2017-04-16T06:57:17.266Z,1008.83
2017-04-16T06:58:18.699Z,1008.82
2017-04-16T06:59:20.131Z,1008.85
2017-04-16T07:00:21.558Z,1008.83
2017-04-16T07:01:22.991Z,1008.79
2017-04-16T07:02:24.417Z,1008.81
2017-04-16T07:03:26.807Z,1008.80
2017-04-16T07:04:28.237Z,1008.84
2017-04-16T07:05:29.669Z,1008.87
2017-04-16T07:06:31.093Z,1008.85
2017-04-16T07:07:32.520Z,1008.80
2017-04-16T07:08:33.955Z,1008.76
2017-04-16T07:09:35.388Z,1008.80
2017-04-16T07:10:36.826Z,1008.73
2017-04-16T07:11:38.253Z,1008.80
2017-04-16T07:12:39.680Z,1008.82
2017-04-16T07:13:41.120Z,1008.77
2017-04-16T07:14:42.546Z,1008.80
2017-04-16T07:15:43.982Z,1008.85
2017-04-16T07:16:45.409Z,1008.88
2017-04-16T07:17:46.841Z,1008.86
2017-04-16T07:18:48.271Z,1008.84
2017-04-16T07:19:49.712Z,1008.86
2017-04-16T07:20:51.146Z,1008.78
2017-04-16T07:21:52.580Z,1008.79
2017-04-16T07:22:54.014Z,1008.84
2017-04-16T07:23:55.438Z,1008.81
2017-04-16T07:24:56.872Z,1008.86
2017-04-16T07:25:58.298Z,1008.83
2017-04-16T07:26:59.728Z,1008.83
2017-04-16T07:28:01.157Z,1008.87
2017-04-16T07:29:02.589Z,1008.82
2017-04-16T07:30:04.022Z,1008.86
2017-04-16T07:31:05.459Z,1008.86
2017-04-16T07:32:06.908Z,1008.89
2017-04-16T07:33:08.340Z,1008.85
2017-04-16T07:34:09.767Z,1008.88
2017-04-16T07:35:11.196Z,1008.88
2017-04-16T07:36:12.629Z,1008.87
2017-04-16T07:37:14.059Z,1008.86
2017-04-16T07:38:15.493Z,1008.87
2017-04-16T07:39:16.919Z,1008.87
2017-04-16T07:40:18.362Z,1008.88
2017-04-16T07:41:19.803Z,1008.83
2017-04-16T07:42:21.237Z,1008.89
2017-04-16T07:43:22.668Z,1008.88
2017-04-16T07:44:24.095Z,1008.90
2017-04-16T07:45:25.542Z,1008.87
2017-04-16T07:46:26.923Z,1008.82
2017-04-16T07:47:28.355Z,1008.86
2017-04-16T07:48:29.789Z,1008.87
2017-04-16T07:49:31.219Z,1008.88
2017-04-16T07:50:32.644Z,1008.86
2017-04-16T07:51:34.080Z,1008.90
2017-04-16T07:52:35.532Z,1008.90
2017-04-16T07:53:36.936Z,1008.94
2017-04-16T07:54:38.362Z,1008.97
2017-04-16T07:55:39.797Z,1008.97
2017-04-16T07:56:41.228Z,1008.92
2017-04-16T07:57:42.660Z,1008.93
2017-04-16T07:58:44.085Z,1008.97
2017-04-16T07:59:45.525Z,1008.95
2017-04-16T08:00:46.956Z,1008.93
2017-04-16T08:01:48.387Z,1008.95
2017-04-16T08:02:49.816Z,1008.99
2017-04-16T08:03:51.246Z,1009.00
2017-04-16T08:04:52.674Z,1009.01
2017-04-16T08:05:54.108Z,1009.02
2017-04-16T08:06:55.537Z,1009.03
2017-04-16T08:07:56.928Z,1008.98
2017-04-16T08:08:58.361Z,1009.01
2017-04-16T08:09:59.794Z,1009.01
2017-04-16T08:11:01.220Z,1008.99
2017-04-16T08:12:02.659Z,1009.00
2017-04-16T08:13:04.096Z,1009.00
2017-04-16T08:14:05.613Z,1009.01
2017-04-16T08:15:07.057Z,1009.05
2017-04-16T08:16:08.485Z,1009.03
2017-04-16T08:17:09.875Z,1008.98
2017-04-16T08:18:11.306Z,1008.99
2017-04-16T08:19:12.735Z,1008.99
2017-04-16T08:20:14.168Z,1009.02
2017-04-16T08:21:15.598Z,1009.02
2017-04-16T08:22:17.026Z,1009.01
2017-04-16T08:23:18.456Z,1009.01
2017-04-16T08:24:19.887Z,1009.03
2017-04-16T08:25:22.014Z,1008.93
2017-04-16T08:26:23.429Z,1008.94
2017-04-16T08:27:24.853Z,1008.98
2017-04-16T08:28:26.283Z,1008.95
2017-04-16T08:29:27.715Z,1008.98
2017-04-16T08:30:29.146Z,1008.98
2017-04-16T08:31:30.576Z,1008.94
2017-04-16T08:32:32.010Z,1008.95
2017-04-16T08:33:33.446Z,1008.97
2017-04-16T08:34:34.894Z,1008.99
2017-04-16T08:35:36.321Z,1009.01
2017-04-16T08:36:37.750Z,1009.04
2017-04-16T08:37:39.680Z,1009.01
2017-04-16T08:38:41.104Z,1009.02
2017-04-16T08:39:42.534Z,1009.06
2017-04-16T08:40:43.963Z,1009.17
2017-04-16T08:41:45.401Z,1009.19
2017-04-16T08:42:46.841Z,1009.18
2017-04-16T08:43:48.275Z,1009.23
2017-04-16T08:44:49.710Z,1009.21
2017-04-16T08:45:51.138Z,1009.24
2017-04-16T08:46:52.571Z,1009.22
2017-04-16T08:47:53.999Z,1009.24
2017-04-16T08:48:55.431Z,1009.22
2017-04-16T08:49:56.864Z,1009.23
2017-04-16T08:50:58.305Z,1009.21
2017-04-16T08:51:59.725Z,1009.17
2017-04-16T08:53:01.157Z,1009.15
2017-04-16T08:54:02.588Z,1009.12
2017-04-16T08:55:04.019Z,1009.13
2017-04-16T08:56:06.264Z,1009.16
2017-04-16T08:57:07.695Z,1009.19
2017-04-16T08:58:09.125Z,1009.16
2017-04-16T08:59:10.557Z,1009.18
2017-04-16T09:00:11.989Z,1009.19
2017-04-16T09:01:13.424Z,1009.12
2017-04-16T09:02:14.850Z,1009.09
2017-04-16T09:03:16.282Z,1009.17
2017-04-16T09:04:17.712Z,1009.12
2017-04-16T09:05:19.146Z,1009.12
2017-04-16T09:06:20.576Z,1009.10
2017-04-16T09:07:22.009Z,1009.16
2017-04-16T09:08:23.433Z,1009.11
2017-04-16T09:09:24.866Z,1009.09
2017-04-16T09:10:26.297Z,1009.08
2017-04-16T09:11:28.562Z,1009.06
2017-04-16T09:12:29.987Z,1009.05
2017-04-16T09:13:31.414Z,1009.06
2017-04-16T09:14:32.845Z,1009.03
2017-04-16T09:15:34.279Z,1008.99
2017-04-16T09:16:35.706Z,1009.03
2017-04-16T09:17:37.141Z,1009.00
2017-04-16T09:18:38.569Z,1009.06
2017-04-16T09:19:40.001Z,1008.97
2017-04-16T09:20:41.426Z,1008.96
2017-04-16T09:21:42.879Z,1009.02
2017-04-16T09:22:44.322Z,1008.97
2017-04-16T09:23:45.749Z,1008.97
2017-04-16T09:24:47.184Z,1009.02
2017-04-16T09:25:48.619Z,1008.94
2017-04-16T09:26:50.048Z,1008.98
2017-04-16T09:27:51.479Z,1008.94
2017-04-16T09:28:52.913Z,1008.96
2017-04-16T09:29:54.338Z,1008.97
2017-04-16T09:30:55.768Z,1008.98
2017-04-16T09:31:57.199Z,1009.00
2017-04-16T09:32:58.639Z,1009.02
2017-04-16T09:34:00.073Z,1009.03
2017-04-16T09:35:01.510Z,1008.95
2017-04-16T09:36:02.937Z,1008.99
2017-04-16T09:37:04.362Z,1008.97
2017-04-16T09:38:05.809Z,1008.97
2017-04-16T09:39:07.247Z,1008.94
2017-04-16T09:40:08.689Z,1008.86
2017-04-16T09:41:10.115Z,1008.89
2017-04-16T09:42:11.544Z,1008.95
2017-04-16T09:43:13.777Z,1008.87
2017-04-16T09:44:15.207Z,1008.92
2017-04-16T09:45:16.637Z,1008.90
2017-04-16T09:46:18.069Z,1008.88
2017-04-16T09:47:19.503Z,1008.90
2017-04-16T09:48:20.931Z,1008.86
2017-04-16T09:49:22.355Z,1008.88
2017-04-16T09:50:23.786Z,1008.92
2017-04-16T09:51:25.218Z,1008.93
2017-04-16T09:52:26.654Z,1008.93
2017-04-16T09:53:28.039Z,1008.88
2017-04-16T09:54:29.473Z,1008.92
2017-04-16T09:55:31.004Z,1008.93
2017-04-16T09:56:32.444Z,1008.96
2017-04-16T09:57:33.875Z,1008.90
2017-04-16T09:58:35.313Z,1008.95
2017-04-16T09:59:36.734Z,1008.94
2017-04-16T10:00:38.167Z,1008.96
2017-04-16T10:01:39.613Z,1008.93
2017-04-16T10:02:41.091Z,1008.97
2017-04-16T10:03:42.519Z,1008.93
2017-04-16T10:04:43.951Z,1008.93
2017-04-16T10:05:45.394Z,1008.96
2017-04-16T10:06:46.820Z,1008.92
2017-04-16T10:07:48.259Z,1008.98
2017-04-16T10:08:49.714Z,1008.95
2017-04-16T10:09:51.227Z,1008.96
2017-04-16T10:10:52.704Z,1008.96
2017-04-16T10:11:54.142Z,1008.91
2017-04-16T10:12:55.603Z,1008.90
2017-04-16T10:13:57.040Z,1008.99
2017-04-16T10:14:58.479Z,1008.97
2017-04-16T10:15:59.948Z,1008.90
2017-04-16T10:17:01.378Z,1008.92
2017-04-16T10:18:02.818Z,1008.93
2017-04-16T10:19:04.252Z,1009.00
2017-04-16T10:20:05.697Z,1008.95
2017-04-16T10:21:07.135Z,1008.97
2017-04-16T10:22:08.575Z,1008.94
2017-04-16T10:23:10.020Z,1008.91
2017-04-16T10:24:11.478Z,1008.99
2017-04-16T10:25:12.914Z,1008.90
2017-04-16T10:26:14.352Z,1008.95
2017-04-16T10:27:15.790Z,1008.93
2017-04-16T10:28:17.281Z,1008.92
2017-04-16T10:29:18.717Z,1008.91
2017-04-16T10:30:20.167Z,1008.91
2017-04-16T10:31:21.608Z,1008.80
2017-04-16T10:32:23.038Z,1008.83
2017-04-16T10:33:24.470Z,1008.85
2017-04-16T10:34:25.911Z,1008.85
2017-04-16T10:35:27.350Z,1008.84
2017-04-16T10:36:28.782Z,1008.87
2017-04-16T10:37:30.221Z,1008.87
2017-04-16T10:38:31.654Z,1008.90
2017-04-16T10:39:33.089Z,1008.89
2017-04-16T10:40:34.513Z,1008.90
2017-04-16T10:41:35.947Z,1008.88
2017-04-16T10:42:37.382Z,1008.92
2017-04-16T10:43:38.821Z,1008.93
2017-04-16T10:44:40.257Z,1008.90
2017-04-16T10:45:41.703Z,1008.88
2017-04-16T10:46:43.141Z,1008.84
2017-04-16T10:47:44.573Z,1008.82
2017-04-16T10:48:46.954Z,1008.89
2017-04-16T10:49:48.397Z,1008.89
2017-04-16T10:50:49.825Z,1008.91
2017-04-16T10:51:51.264Z,1008.84
2017-04-16T10:52:52.703Z,1008.86
2017-04-16T10:53:54.129Z,1008.83
2017-04-16T10:54:55.558Z,1008.87
2017-04-16T10:55:56.994Z,1008.86
2017-04-16T10:56:58.425Z,1008.82
2017-04-16T10:57:59.854Z,1008.78
2017-04-16T10:59:01.241Z,1008.78
2017-04-16T11:00:02.671Z,1008.77
2017-04-16T11:01:04.100Z,1008.75
2017-04-16T11:02:05.530Z,1008.78
2017-04-16T11:03:06.964Z,1008.74
2017-04-16T11:04:08.392Z,1008.70
2017-04-16T11:05:09.829Z,1008.67
2017-04-16T11:06:11.256Z,1008.66
2017-04-16T11:07:12.695Z,1008.63
2017-04-16T11:08:14.126Z,1008.69
2017-04-16T11:09:15.557Z,1008.64
2017-04-16T11:10:16.946Z,1008.66
2017-04-16T11:11:18.395Z,1008.64
2017-04-16T11:12:19.828Z,1008.65
2017-04-16T11:13:21.263Z,1008.60
2017-04-16T11:14:22.695Z,1008.61
2017-04-16T11:15:24.134Z,1008.65
2017-04-16T11:16:25.561Z,1008.65
2017-04-16T11:17:26.998Z,1008.65
2017-04-16T11:18:28.430Z,1008.67
2017-04-16T11:19:29.864Z,1008.65
2017-04-16T11:20:31.297Z,1008.65
2017-04-16T11:21:32.736Z,1008.65
2017-04-16T11:22:34.168Z,1008.65
2017-04-16T11:23:35.602Z,1008.67
2017-04-16T11:24:37.035Z,1008.74
2017-04-16T11:25:38.458Z,1008.76
2017-04-16T11:26:39.903Z,1008.83
2017-04-16T11:27:41.355Z,1008.82
2017-04-16T11:28:42.783Z,1008.86
2017-04-16T11:29:44.212Z,1008.85
2017-04-16T11:30:45.639Z,1008.81
2017-04-16T11:31:47.076Z,1008.86
2017-04-16T11:32:48.513Z,1008.84
2017-04-16T11:33:49.949Z,1008.88
2017-04-16T11:34:51.922Z,1008.88
2017-04-16T11:35:53.451Z,1008.88
2017-04-16T11:36:54.968Z,1008.89
2017-04-16T11:37:56.398Z,1008.90
2017-04-16T11:38:57.827Z,1008.91
2017-04-16T11:39:59.266Z,1008.92
2017-04-16T11:41:00.708Z,1008.89
2017-04-16T11:42:02.142Z,1008.93
2017-04-16T11:43:03.576Z,1008.89
2017-04-16T11:44:05.008Z,1008.78
2017-04-16T11:45:06.435Z,1008.80
2017-04-16T11:46:07.870Z,1008.82
2017-04-16T11:47:09.409Z,1008.81
2017-04-16T11:48:10.841Z,1008.78
2017-04-16T11:49:12.265Z,1008.78
2017-04-16T11:50:13.701Z,1008.81
2017-04-16T11:51:15.135Z,1008.92
2017-04-16T11:52:16.569Z,1009.09
2017-04-16T11:53:17.998Z,1009.08
2017-04-16T11:54:19.431Z,1009.11
2017-04-16T11:55:20.925Z,1009.10
2017-04-16T11:56:22.360Z,1009.14
2017-04-16T11:57:23.795Z,1009.14
2017-04-16T11:58:25.313Z,1009.12
2017-04-16T11:59:26.743Z,1009.18
2017-04-16T12:00:28.170Z,1009.19
2017-04-16T12:01:29.606Z,1009.22
2017-04-16T12:02:31.665Z,1009.20
2017-04-16T12:03:33.094Z,1009.21
2017-04-16T12:04:34.526Z,1009.34
2017-04-16T12:05:35.955Z,1009.37
2017-04-16T12:06:37.383Z,1009.39
2017-04-16T12:07:38.824Z,1009.46
2017-04-16T12:08:40.259Z,1009.40
2017-04-16T12:09:41.683Z,1009.45
2017-04-16T12:10:43.121Z,1009.49
2017-04-16T12:11:44.558Z,1009.49
2017-04-16T12:12:46.000Z,1009.56
2017-04-16T12:13:47.431Z,1009.55
2017-04-16T12:14:48.865Z,1009.55
2017-04-16T12:15:50.779Z,1009.60
2017-04-16T12:16:52.205Z,1009.61
2017-04-16T12:17:54.224Z,1009.58
2017-04-16T12:18:55.664Z,1009.58
2017-04-16T12:19:57.089Z,1009.64
2017-04-16T12:20:58.513Z,1009.66
2017-04-16T12:21:59.946Z,1009.63
2017-04-16T12:23:01.379Z,1009.63